sensor_id;sensor_type;location;lat;lon;timestamp;P1;durP1;ratioP1;P2;durP2;ratioP2
78989;SDS011;68390;52.130;21.218;2023-07-16T00:01:47;10.93;;;7.00;;
78989;SDS011;68390;52.130;21.218;2023-07-16T00:04:12;8.18;;;6.68;;
78989;SDS011;68390;52.130;21.218;2023-07-16T00:06:37;8.82;;;7.25;;
78989;SDS011;68390;52.130;21.218;2023-07-16T00:09:03;9.20;;;6.32;;
78989;SDS011;68390;52.130;21.218;2023-07-16T00:11:28;7.15;;;6.10;;
78989;SDS011;68390;52.130;21.218;2023-07-16T00:13:54;8.93;;;6.30;;
78989;SDS011;68390;52.130;21.218;2023-07-16T00:16:19;7.85;;;6.70;;
78989;SDS011;68390;52.130;21.218;2023-07-16T00:18:44;9.25;;;6.82;;
78989;SDS011;68390;52.130;21.218;2023-07-16T00:21:10;8.60;;;7.00;;
78989;SDS011;68390;52.130;21.218;2023-07-16T00:23:36;7.32;;;6.63;;
78989;SDS011;68390;52.130;21.218;2023-07-16T00:26:01;9.07;;;7.45;;
78989;SDS011;68390;52.130;21.218;2023-07-16T00:28:27;8.57;;;7.68;;
78989;SDS011;68390;52.130;21.218;2023-07-16T00:30:52;9.23;;;7.63;;
78989;SDS011;68390;52.130;21.218;2023-07-16T00:33:17;8.23;;;7.15;;
78989;SDS011;68390;52.130;21.218;2023-07-16T00:35:49;11.00;;;7.10;;
78989;SDS011;68390;52.130;21.218;2023-07-16T00:38:18;8.30;;;7.03;;
78989;SDS011;68390;52.130;21.218;2023-07-16T00:40:44;9.80;;;7.30;;
78989;SDS011;68390;52.130;21.218;2023-07-16T00:43:10;7.13;;;5.90;;
78989;SDS011;68390;52.130;21.218;2023-07-16T00:45:36;8.30;;;6.97;;
78989;SDS011;68390;52.130;21.218;2023-07-16T00:48:03;7.78;;;6.97;;
78989;SDS011;68390;52.130;21.218;2023-07-16T00:50:30;9.55;;;7.13;;
78989;SDS011;68390;52.130;21.218;2023-07-16T00:52:59;8.75;;;7.00;;
78989;SDS011;68390;52.130;21.218;2023-07-16T00:55:29;9.90;;;7.20;;
78989;SDS011;68390;52.130;21.218;2023-07-16T00:57:55;11.68;;;8.02;;
78989;SDS011;68390;52.130;21.218;2023-07-16T01:00:25;7.88;;;6.18;;
78989;SDS011;68390;52.130;21.218;2023-07-16T01:02:50;9.90;;;7.28;;
78989;SDS011;68390;52.130;21.218;2023-07-16T01:05:16;9.93;;;6.90;;
78989;SDS011;68390;52.130;21.218;2023-07-16T01:07:42;12.10;;;7.80;;
78989;SDS011;68390;52.130;21.218;2023-07-16T01:10:20;9.43;;;8.10;;
78989;SDS011;68390;52.130;21.218;2023-07-16T01:12:47;9.43;;;7.80;;
78989;SDS011;68390;52.130;21.218;2023-07-16T01:15:13;7.80;;;7.05;;
78989;SDS011;68390;52.130;21.218;2023-07-16T01:17:38;8.80;;;7.90;;
78989;SDS011;68390;52.130;21.218;2023-07-16T01:20:05;10.15;;;7.80;;
78989;SDS011;68390;52.130;21.218;2023-07-16T01:30:26;7.60;;;6.32;;
78989;SDS011;68390;52.130;21.218;2023-07-16T01:32:53;9.50;;;7.78;;
78989;SDS011;68390;52.130;21.218;2023-07-16T01:35:21;8.90;;;7.70;;
78989;SDS011;68390;52.130;21.218;2023-07-16T01:37:47;8.40;;;6.88;;
78989;SDS011;68390;52.130;21.218;2023-07-16T01:40:12;9.02;;;7.85;;
78989;SDS011;68390;52.130;21.218;2023-07-16T01:42:39;9.60;;;7.30;;
78989;SDS011;68390;52.130;21.218;2023-07-16T01:45:05;10.57;;;7.30;;
78989;SDS011;68390;52.130;21.218;2023-07-16T01:50:05;8.57;;;7.47;;
78989;SDS011;68390;52.130;21.218;2023-07-16T01:52:31;7.68;;;6.75;;
78989;SDS011;68390;52.130;21.218;2023-07-16T01:54:56;9.90;;;7.72;;
78989;SDS011;68390;52.130;21.218;2023-07-16T01:57:22;10.13;;;7.80;;
78989;SDS011;68390;52.130;21.218;2023-07-16T01:59:47;8.77;;;7.33;;
78989;SDS011;68390;52.130;21.218;2023-07-16T02:02:12;9.18;;;7.80;;
78989;SDS011;68390;52.130;21.218;2023-07-16T02:04:38;9.30;;;7.72;;
78989;SDS011;68390;52.130;21.218;2023-07-16T02:07:03;9.97;;;7.87;;
78989;SDS011;68390;52.130;21.218;2023-07-16T02:09:29;9.40;;;8.32;;
78989;SDS011;68390;52.130;21.218;2023-07-16T02:11:54;10.65;;;8.73;;
78989;SDS011;68390;52.130;21.218;2023-07-16T02:14:19;9.40;;;8.20;;
78989;SDS011;68390;52.130;21.218;2023-07-16T02:16:45;10.43;;;7.25;;
78989;SDS011;68390;52.130;21.218;2023-07-16T02:19:10;9.63;;;8.65;;
78989;SDS011;68390;52.130;21.218;2023-07-16T02:21:35;9.52;;;7.18;;
78989;SDS011;68390;52.130;21.218;2023-07-16T02:24:01;9.02;;;7.78;;
78989;SDS011;68390;52.130;21.218;2023-07-16T02:26:26;10.53;;;7.67;;
78989;SDS011;68390;52.130;21.218;2023-07-16T02:28:51;9.25;;;7.95;;
78989;SDS011;68390;52.130;21.218;2023-07-16T02:31:17;11.00;;;8.60;;
78989;SDS011;68390;52.130;21.218;2023-07-16T02:33:42;10.27;;;8.55;;
78989;SDS011;68390;52.130;21.218;2023-07-16T02:36:08;9.27;;;7.07;;
78989;SDS011;68390;52.130;21.218;2023-07-16T02:38:33;9.10;;;7.80;;
78989;SDS011;68390;52.130;21.218;2023-07-16T02:40:58;9.20;;;7.28;;
78989;SDS011;68390;52.130;21.218;2023-07-16T02:43:24;9.20;;;7.97;;
78989;SDS011;68390;52.130;21.218;2023-07-16T02:45:49;12.80;;;8.00;;
78989;SDS011;68390;52.130;21.218;2023-07-16T02:48:15;9.60;;;7.57;;
78989;SDS011;68390;52.130;21.218;2023-07-16T02:50:40;9.32;;;7.68;;
78989;SDS011;68390;52.130;21.218;2023-07-16T02:53:06;10.20;;;8.77;;
78989;SDS011;68390;52.130;21.218;2023-07-16T02:55:32;14.25;;;8.60;;
78989;SDS011;68390;52.130;21.218;2023-07-16T02:57:59;10.77;;;8.30;;
78989;SDS011;68390;52.130;21.218;2023-07-16T03:00:27;9.80;;;8.25;;
78989;SDS011;68390;52.130;21.218;2023-07-16T03:02:53;12.07;;;8.27;;
78989;SDS011;68390;52.130;21.218;2023-07-16T03:05:18;12.25;;;9.18;;
78989;SDS011;68390;52.130;21.218;2023-07-16T03:07:43;9.02;;;8.07;;
78989;SDS011;68390;52.130;21.218;2023-07-16T03:10:09;10.48;;;7.97;;
78989;SDS011;68390;52.130;21.218;2023-07-16T03:12:37;10.48;;;8.00;;
78989;SDS011;68390;52.130;21.218;2023-07-16T03:15:02;11.25;;;8.88;;
78989;SDS011;68390;52.130;21.218;2023-07-16T03:17:28;10.43;;;8.85;;
78989;SDS011;68390;52.130;21.218;2023-07-16T03:19:53;13.48;;;9.25;;
78989;SDS011;68390;52.130;21.218;2023-07-16T03:22:18;10.68;;;8.75;;
78989;SDS011;68390;52.130;21.218;2023-07-16T03:24:44;18.52;;;10.07;;
78989;SDS011;68390;52.130;21.218;2023-07-16T03:27:09;11.00;;;8.87;;
78989;SDS011;68390;52.130;21.218;2023-07-16T03:29:34;16.65;;;9.65;;
78989;SDS011;68390;52.130;21.218;2023-07-16T03:32:00;13.32;;;9.63;;
78989;SDS011;68390;52.130;21.218;2023-07-16T03:34:25;14.10;;;9.57;;
78989;SDS011;68390;52.130;21.218;2023-07-16T03:36:50;12.15;;;9.48;;
78989;SDS011;68390;52.130;21.218;2023-07-16T03:39:16;15.88;;;9.50;;
78989;SDS011;68390;52.130;21.218;2023-07-16T03:41:42;18.13;;;9.93;;
78989;SDS011;68390;52.130;21.218;2023-07-16T03:44:07;17.02;;;9.90;;
78989;SDS011;68390;52.130;21.218;2023-07-16T03:46:33;14.50;;;9.88;;
78989;SDS011;68390;52.130;21.218;2023-07-16T03:48:58;15.73;;;9.18;;
78989;SDS011;68390;52.130;21.218;2023-07-16T03:51:23;13.43;;;10.43;;
78989;SDS011;68390;52.130;21.218;2023-07-16T03:53:49;13.05;;;9.13;;
78989;SDS011;68390;52.130;21.218;2023-07-16T03:56:14;17.25;;;9.90;;
78989;SDS011;68390;52.130;21.218;2023-07-16T03:58:39;16.92;;;10.38;;
78989;SDS011;68390;52.130;21.218;2023-07-16T04:01:05;17.58;;;9.10;;
78989;SDS011;68390;52.130;21.218;2023-07-16T04:03:30;13.43;;;9.02;;
78989;SDS011;68390;52.130;21.218;2023-07-16T04:06:02;12.00;;;9.75;;
78989;SDS011;68390;52.130;21.218;2023-07-16T04:08:28;14.00;;;10.68;;
78989;SDS011;68390;52.130;21.218;2023-07-16T04:10:54;17.52;;;10.10;;
78989;SDS011;68390;52.130;21.218;2023-07-16T04:13:19;13.23;;;9.85;;
78989;SDS011;68390;52.130;21.218;2023-07-16T04:15:45;12.38;;;9.65;;
78989;SDS011;68390;52.130;21.218;2023-07-16T04:18:10;11.43;;;9.13;;
78989;SDS011;68390;52.130;21.218;2023-07-16T04:20:35;11.43;;;9.87;;
78989;SDS011;68390;52.130;21.218;2023-07-16T04:23:01;14.97;;;9.23;;
78989;SDS011;68390;52.130;21.218;2023-07-16T04:25:26;12.98;;;9.15;;
78989;SDS011;68390;52.130;21.218;2023-07-16T04:27:51;13.82;;;9.88;;
78989;SDS011;68390;52.130;21.218;2023-07-16T04:30:17;13.85;;;9.73;;
78989;SDS011;68390;52.130;21.218;2023-07-16T04:32:42;10.75;;;8.93;;
78989;SDS011;68390;52.130;21.218;2023-07-16T04:35:08;15.23;;;9.45;;
78989;SDS011;68390;52.130;21.218;2023-07-16T04:37:33;12.45;;;10.48;;
78989;SDS011;68390;52.130;21.218;2023-07-16T04:39:58;13.88;;;10.30;;
78989;SDS011;68390;52.130;21.218;2023-07-16T04:42:24;12.48;;;10.00;;
78989;SDS011;68390;52.130;21.218;2023-07-16T04:44:49;10.30;;;8.98;;
78989;SDS011;68390;52.130;21.218;2023-07-16T04:47:14;12.13;;;9.45;;
78989;SDS011;68390;52.130;21.218;2023-07-16T04:49:40;12.80;;;9.68;;
78989;SDS011;68390;52.130;21.218;2023-07-16T04:52:05;11.30;;;10.02;;
78989;SDS011;68390;52.130;21.218;2023-07-16T04:54:35;12.75;;;9.48;;
78989;SDS011;68390;52.130;21.218;2023-07-16T04:57:01;17.92;;;9.30;;
78989;SDS011;68390;52.130;21.218;2023-07-16T04:59:27;9.80;;;8.52;;
78989;SDS011;68390;52.130;21.218;2023-07-16T05:01:52;11.02;;;8.63;;
78989;SDS011;68390;52.130;21.218;2023-07-16T05:04:17;11.17;;;8.73;;
78989;SDS011;68390;52.130;21.218;2023-07-16T05:06:43;13.02;;;8.85;;
78989;SDS011;68390;52.130;21.218;2023-07-16T05:09:08;10.05;;;8.43;;
78989;SDS011;68390;52.130;21.218;2023-07-16T05:11:34;9.37;;;8.40;;
78989;SDS011;68390;52.130;21.218;2023-07-16T05:13:59;11.32;;;8.88;;
78989;SDS011;68390;52.130;21.218;2023-07-16T05:16:24;11.73;;;8.32;;
78989;SDS011;68390;52.130;21.218;2023-07-16T05:18:50;10.00;;;8.93;;
78989;SDS011;68390;52.130;21.218;2023-07-16T05:21:15;10.30;;;8.77;;
78989;SDS011;68390;52.130;21.218;2023-07-16T05:23:40;12.37;;;8.77;;
78989;SDS011;68390;52.130;21.218;2023-07-16T05:26:06;14.45;;;9.27;;
78989;SDS011;68390;52.130;21.218;2023-07-16T05:28:31;11.18;;;8.45;;
78989;SDS011;68390;52.130;21.218;2023-07-16T05:31:00;10.75;;;8.70;;
78989;SDS011;68390;52.130;21.218;2023-07-16T05:33:26;9.80;;;8.43;;
78989;SDS011;68390;52.130;21.218;2023-07-16T05:35:51;10.52;;;8.90;;
78989;SDS011;68390;52.130;21.218;2023-07-16T05:38:16;9.80;;;8.50;;
78989;SDS011;68390;52.130;21.218;2023-07-16T05:40:42;13.23;;;9.82;;
78989;SDS011;68390;52.130;21.218;2023-07-16T05:43:07;10.43;;;9.38;;
78989;SDS011;68390;52.130;21.218;2023-07-16T05:45:32;13.40;;;9.30;;
78989;SDS011;68390;52.130;21.218;2023-07-16T05:47:59;9.95;;;8.95;;
78989;SDS011;68390;52.130;21.218;2023-07-16T05:50:24;10.57;;;8.13;;
78989;SDS011;68390;52.130;21.218;2023-07-16T05:52:49;10.63;;;9.52;;
78989;SDS011;68390;52.130;21.218;2023-07-16T05:55:15;11.88;;;8.95;;
78989;SDS011;68390;52.130;21.218;2023-07-16T05:57:40;10.90;;;8.50;;
78989;SDS011;68390;52.130;21.218;2023-07-16T06:00:06;11.27;;;8.90;;
78989;SDS011;68390;52.130;21.218;2023-07-16T06:02:32;10.05;;;6.80;;
78989;SDS011;68390;52.130;21.218;2023-07-16T06:04:57;10.93;;;8.23;;
78989;SDS011;68390;52.130;21.218;2023-07-16T06:07:22;10.38;;;8.00;;
78989;SDS011;68390;52.130;21.218;2023-07-16T06:09:48;11.20;;;8.45;;
78989;SDS011;68390;52.130;21.218;2023-07-16T06:12:13;9.52;;;8.50;;
78989;SDS011;68390;52.130;21.218;2023-07-16T06:14:39;11.90;;;8.65;;
78989;SDS011;68390;52.130;21.218;2023-07-16T06:17:04;8.98;;;8.07;;
78989;SDS011;68390;52.130;21.218;2023-07-16T06:19:30;10.80;;;8.45;;
78989;SDS011;68390;52.130;21.218;2023-07-16T06:21:55;10.48;;;8.52;;
78989;SDS011;68390;52.130;21.218;2023-07-16T06:24:21;10.63;;;8.18;;
78989;SDS011;68390;52.130;21.218;2023-07-16T06:26:46;9.40;;;8.05;;
78989;SDS011;68390;52.130;21.218;2023-07-16T06:29:12;10.23;;;8.85;;
78989;SDS011;68390;52.130;21.218;2023-07-16T06:31:38;11.43;;;8.00;;
78989;SDS011;68390;52.130;21.218;2023-07-16T06:34:04;9.38;;;8.35;;
78989;SDS011;68390;52.130;21.218;2023-07-16T06:36:29;9.80;;;7.75;;
78989;SDS011;68390;52.130;21.218;2023-07-16T06:38:54;10.20;;;7.93;;
78989;SDS011;68390;52.130;21.218;2023-07-16T06:41:20;10.77;;;8.40;;
78989;SDS011;68390;52.130;21.218;2023-07-16T06:43:45;10.77;;;7.90;;
78989;SDS011;68390;52.130;21.218;2023-07-16T06:46:10;8.95;;;7.93;;
78989;SDS011;68390;52.130;21.218;2023-07-16T06:48:36;9.80;;;8.18;;
78989;SDS011;68390;52.130;21.218;2023-07-16T06:51:01;12.30;;;7.82;;
78989;SDS011;68390;52.130;21.218;2023-07-16T06:53:27;9.38;;;7.22;;
78989;SDS011;68390;52.130;21.218;2023-07-16T06:55:52;8.68;;;7.63;;
78989;SDS011;68390;52.130;21.218;2023-07-16T06:58:17;9.35;;;8.35;;
78989;SDS011;68390;52.130;21.218;2023-07-16T07:00:43;9.02;;;7.88;;
78989;SDS011;68390;52.130;21.218;2023-07-16T07:03:08;8.35;;;7.30;;
78989;SDS011;68390;52.130;21.218;2023-07-16T07:05:33;9.15;;;7.07;;
78989;SDS011;68390;52.130;21.218;2023-07-16T07:08:01;10.13;;;7.45;;
78989;SDS011;68390;52.130;21.218;2023-07-16T07:10:26;9.10;;;7.55;;
78989;SDS011;68390;52.130;21.218;2023-07-16T07:12:52;8.48;;;7.57;;
78989;SDS011;68390;52.130;21.218;2023-07-16T07:15:17;8.05;;;7.25;;
78989;SDS011;68390;52.130;21.218;2023-07-16T07:17:43;12.07;;;7.57;;
78989;SDS011;68390;52.130;21.218;2023-07-16T07:20:11;9.50;;;7.43;;
78989;SDS011;68390;52.130;21.218;2023-07-16T07:22:37;8.10;;;6.82;;
78989;SDS011;68390;52.130;21.218;2023-07-16T07:25:03;8.60;;;6.70;;
78989;SDS011;68390;52.130;21.218;2023-07-16T07:27:29;7.65;;;6.90;;
78989;SDS011;68390;52.130;21.218;2023-07-16T07:29:54;8.23;;;7.43;;
78989;SDS011;68390;52.130;21.218;2023-07-16T07:32:20;7.75;;;6.95;;
78989;SDS011;68390;52.130;21.218;2023-07-16T07:34:46;8.65;;;7.20;;
78989;SDS011;68390;52.130;21.218;2023-07-16T07:37:12;6.80;;;6.10;;
78989;SDS011;68390;52.130;21.218;2023-07-16T07:39:37;8.07;;;6.85;;
78989;SDS011;68390;52.130;21.218;2023-07-16T07:42:03;10.52;;;7.30;;
78989;SDS011;68390;52.130;21.218;2023-07-16T07:44:28;8.00;;;6.63;;
78989;SDS011;68390;52.130;21.218;2023-07-16T07:46:54;6.85;;;6.15;;
78989;SDS011;68390;52.130;21.218;2023-07-16T07:49:19;8.77;;;6.78;;
78989;SDS011;68390;52.130;21.218;2023-07-16T07:51:44;9.60;;;6.47;;
78989;SDS011;68390;52.130;21.218;2023-07-16T07:54:10;8.65;;;6.90;;
78989;SDS011;68390;52.130;21.218;2023-07-16T07:56:35;9.30;;;7.15;;
78989;SDS011;68390;52.130;21.218;2023-07-16T07:59:00;11.73;;;6.95;;
78989;SDS011;68390;52.130;21.218;2023-07-16T08:01:26;7.97;;;7.20;;
78989;SDS011;68390;52.130;21.218;2023-07-16T08:03:52;8.43;;;7.15;;
78989;SDS011;68390;52.130;21.218;2023-07-16T08:06:17;9.30;;;7.18;;
78989;SDS011;68390;52.130;21.218;2023-07-16T08:08:42;7.55;;;6.50;;
78989;SDS011;68390;52.130;21.218;2023-07-16T08:11:08;9.43;;;6.90;;
78989;SDS011;68390;52.130;21.218;2023-07-16T08:13:33;7.55;;;6.85;;
78989;SDS011;68390;52.130;21.218;2023-07-16T08:15:58;9.05;;;6.85;;
78989;SDS011;68390;52.130;21.218;2023-07-16T08:18:24;8.20;;;6.55;;
78989;SDS011;68390;52.130;21.218;2023-07-16T08:20:49;9.60;;;7.22;;
78989;SDS011;68390;52.130;21.218;2023-07-16T08:23:14;8.52;;;7.32;;
78989;SDS011;68390;52.130;21.218;2023-07-16T08:25:40;8.35;;;6.57;;
78989;SDS011;68390;52.130;21.218;2023-07-16T08:28:05;6.85;;;6.13;;
78989;SDS011;68390;52.130;21.218;2023-07-16T08:30:32;9.63;;;6.80;;
78989;SDS011;68390;52.130;21.218;2023-07-16T08:32:58;8.05;;;6.32;;
78989;SDS011;68390;52.130;21.218;2023-07-16T08:35:23;8.38;;;6.43;;
78989;SDS011;68390;52.130;21.218;2023-07-16T08:37:49;10.32;;;6.47;;
78989;SDS011;68390;52.130;21.218;2023-07-16T08:40:14;7.53;;;6.00;;
78989;SDS011;68390;52.130;21.218;2023-07-16T08:42:40;6.50;;;5.75;;
78989;SDS011;68390;52.130;21.218;2023-07-16T08:45:09;7.75;;;5.80;;
78989;SDS011;68390;52.130;21.218;2023-07-16T08:47:35;6.95;;;5.97;;
78989;SDS011;68390;52.130;21.218;2023-07-16T08:50:02;6.43;;;5.65;;
78989;SDS011;68390;52.130;21.218;2023-07-16T08:52:28;7.05;;;6.07;;
78989;SDS011;68390;52.130;21.218;2023-07-16T08:54:54;6.38;;;5.78;;
78989;SDS011;68390;52.130;21.218;2023-07-16T08:57:20;6.80;;;5.65;;
78989;SDS011;68390;52.130;21.218;2023-07-16T08:59:49;6.88;;;5.72;;
78989;SDS011;68390;52.130;21.218;2023-07-16T09:02:19;6.60;;;5.88;;
78989;SDS011;68390;52.130;21.218;2023-07-16T09:04:46;6.72;;;5.80;;
78989;SDS011;68390;52.130;21.218;2023-07-16T09:07:12;10.20;;;5.78;;
78989;SDS011;68390;52.130;21.218;2023-07-16T09:09:37;6.60;;;5.63;;
78989;SDS011;68390;52.130;21.218;2023-07-16T09:12:03;6.68;;;5.50;;
78989;SDS011;68390;52.130;21.218;2023-07-16T09:14:28;8.40;;;6.10;;
78989;SDS011;68390;52.130;21.218;2023-07-16T09:16:54;7.30;;;5.70;;
78989;SDS011;68390;52.130;21.218;2023-07-16T09:19:21;6.47;;;5.30;;
78989;SDS011;68390;52.130;21.218;2023-07-16T09:21:47;6.13;;;5.10;;
78989;SDS011;68390;52.130;21.218;2023-07-16T09:24:13;5.85;;;4.82;;
78989;SDS011;68390;52.130;21.218;2023-07-16T09:26:46;5.70;;;4.30;;
78989;SDS011;68390;52.130;21.218;2023-07-16T09:29:12;5.25;;;4.60;;
78989;SDS011;68390;52.130;21.218;2023-07-16T09:31:38;5.75;;;5.13;;
78989;SDS011;68390;52.130;21.218;2023-07-16T09:34:28;7.10;;;4.80;;
78989;SDS011;68390;52.130;21.218;2023-07-16T09:36:55;6.50;;;4.63;;
78989;SDS011;68390;52.130;21.218;2023-07-16T09:39:25;5.88;;;4.65;;
78989;SDS011;68390;52.130;21.218;2023-07-16T09:41:51;6.10;;;4.70;;
78989;SDS011;68390;52.130;21.218;2023-07-16T09:44:18;6.95;;;4.88;;
78989;SDS011;68390;52.130;21.218;2023-07-16T09:46:44;9.55;;;5.43;;
78989;SDS011;68390;52.130;21.218;2023-07-16T09:49:10;6.18;;;5.00;;
78989;SDS011;68390;52.130;21.218;2023-07-16T09:51:36;6.22;;;4.60;;
78989;SDS011;68390;52.130;21.218;2023-07-16T09:54:02;8.13;;;4.50;;
78989;SDS011;68390;52.130;21.218;2023-07-16T09:56:39;5.05;;;4.55;;
78989;SDS011;68390;52.130;21.218;2023-07-16T09:59:10;6.70;;;4.85;;
78989;SDS011;68390;52.130;21.218;2023-07-16T10:01:38;5.85;;;4.80;;
78989;SDS011;68390;52.130;21.218;2023-07-16T10:04:14;6.90;;;4.85;;
78989;SDS011;68390;52.130;21.218;2023-07-16T10:06:51;5.40;;;4.68;;
78989;SDS011;68390;52.130;21.218;2023-07-16T10:12:18;5.97;;;4.75;;
78989;SDS011;68390;52.130;21.218;2023-07-16T10:17:20;5.68;;;4.57;;
78989;SDS011;68390;52.130;21.218;2023-07-16T10:22:37;6.35;;;4.90;;
78989;SDS011;68390;52.130;21.218;2023-07-16T10:25:05;5.28;;;4.35;;
78989;SDS011;68390;52.130;21.218;2023-07-16T10:27:34;4.93;;;4.43;;
78989;SDS011;68390;52.130;21.218;2023-07-16T10:30:00;5.75;;;4.85;;
78989;SDS011;68390;52.130;21.218;2023-07-16T10:32:28;5.75;;;5.07;;
78989;SDS011;68390;52.130;21.218;2023-07-16T10:34:55;7.95;;;5.53;;
78989;SDS011;68390;52.130;21.218;2023-07-16T10:37:21;8.77;;;5.32;;
78989;SDS011;68390;52.130;21.218;2023-07-16T10:39:50;6.93;;;4.80;;
78989;SDS011;68390;52.130;21.218;2023-07-16T10:42:17;6.13;;;5.40;;
78989;SDS011;68390;52.130;21.218;2023-07-16T10:44:44;5.38;;;4.60;;
78989;SDS011;68390;52.130;21.218;2023-07-16T10:47:17;5.63;;;4.60;;
78989;SDS011;68390;52.130;21.218;2023-07-16T10:49:46;6.13;;;4.60;;
78989;SDS011;68390;52.130;21.218;2023-07-16T10:52:11;5.43;;;4.88;;
78989;SDS011;68390;52.130;21.218;2023-07-16T10:54:36;6.68;;;4.97;;
78989;SDS011;68390;52.130;21.218;2023-07-16T10:57:03;6.68;;;5.07;;
78989;SDS011;68390;52.130;21.218;2023-07-16T10:59:29;5.00;;;4.38;;
78989;SDS011;68390;52.130;21.218;2023-07-16T11:01:55;6.53;;;5.07;;
78989;SDS011;68390;52.130;21.218;2023-07-16T11:04:20;6.50;;;5.07;;
78989;SDS011;68390;52.130;21.218;2023-07-16T11:06:45;8.07;;;5.18;;
78989;SDS011;68390;52.130;21.218;2023-07-16T11:09:11;6.53;;;5.40;;
78989;SDS011;68390;52.130;21.218;2023-07-16T11:11:37;6.28;;;5.55;;
78989;SDS011;68390;52.130;21.218;2023-07-16T11:14:06;6.22;;;5.20;;
78989;SDS011;68390;52.130;21.218;2023-07-16T11:16:35;6.70;;;6.00;;
78989;SDS011;68390;52.130;21.218;2023-07-16T11:19:05;10.32;;;5.35;;
78989;SDS011;68390;52.130;21.218;2023-07-16T11:21:33;7.40;;;6.40;;
78989;SDS011;68390;52.130;21.218;2023-07-16T11:24:08;6.78;;;6.10;;
78989;SDS011;68390;52.130;21.218;2023-07-16T11:26:49;7.80;;;6.43;;
78989;SDS011;68390;52.130;21.218;2023-07-16T11:29:15;7.40;;;6.47;;
78989;SDS011;68390;52.130;21.218;2023-07-16T11:31:41;7.88;;;6.47;;
78989;SDS011;68390;52.130;21.218;2023-07-16T11:34:06;7.35;;;6.60;;
78989;SDS011;68390;52.130;21.218;2023-07-16T11:36:33;12.00;;;7.20;;
78989;SDS011;68390;52.130;21.218;2023-07-16T11:38:59;8.27;;;6.45;;
78989;SDS011;68390;52.130;21.218;2023-07-16T11:41:28;8.30;;;6.97;;
78989;SDS011;68390;52.130;21.218;2023-07-16T11:43:53;8.10;;;7.03;;
78989;SDS011;68390;52.130;21.218;2023-07-16T11:46:18;7.80;;;6.82;;
78989;SDS011;68390;52.130;21.218;2023-07-16T11:48:44;7.57;;;6.80;;
78989;SDS011;68390;52.130;21.218;2023-07-16T11:51:09;11.88;;;7.10;;
78989;SDS011;68390;52.130;21.218;2023-07-16T11:53:34;7.28;;;6.55;;
78989;SDS011;68390;52.130;21.218;2023-07-16T11:56:00;10.90;;;6.95;;
78989;SDS011;68390;52.130;21.218;2023-07-16T11:58:25;9.88;;;7.38;;
78989;SDS011;68390;52.130;21.218;2023-07-16T12:00:50;8.02;;;7.20;;
78989;SDS011;68390;52.130;21.218;2023-07-16T12:03:16;12.82;;;7.35;;
78989;SDS011;68390;52.130;21.218;2023-07-16T12:05:42;8.43;;;6.90;;
78989;SDS011;68390;52.130;21.218;2023-07-16T12:08:07;8.30;;;6.75;;
78989;SDS011;68390;52.130;21.218;2023-07-16T12:10:39;7.63;;;6.47;;
78989;SDS011;68390;52.130;21.218;2023-07-16T12:13:07;7.78;;;6.40;;
78989;SDS011;68390;52.130;21.218;2023-07-16T12:15:32;10.13;;;7.38;;
78989;SDS011;68390;52.130;21.218;2023-07-16T12:17:59;9.85;;;7.22;;
78989;SDS011;68390;52.130;21.218;2023-07-16T12:20:24;7.05;;;6.18;;
78989;SDS011;68390;52.130;21.218;2023-07-16T12:22:49;9.77;;;6.70;;
78989;SDS011;68390;52.130;21.218;2023-07-16T12:25:15;7.40;;;6.47;;
78989;SDS011;68390;52.130;21.218;2023-07-16T12:27:41;7.78;;;6.53;;
78989;SDS011;68390;52.130;21.218;2023-07-16T12:30:07;7.80;;;6.40;;
78989;SDS011;68390;52.130;21.218;2023-07-16T12:32:33;8.43;;;6.15;;
78989;SDS011;68390;52.130;21.218;2023-07-16T12:34:58;8.20;;;6.05;;
78989;SDS011;68390;52.130;21.218;2023-07-16T12:37:25;9.68;;;6.82;;
78989;SDS011;68390;52.130;21.218;2023-07-16T12:39:50;8.48;;;6.35;;
78989;SDS011;68390;52.130;21.218;2023-07-16T12:42:16;11.57;;;6.50;;
78989;SDS011;68390;52.130;21.218;2023-07-16T12:44:41;8.23;;;7.18;;
78989;SDS011;68390;52.130;21.218;2023-07-16T12:47:06;9.20;;;6.93;;
78989;SDS011;68390;52.130;21.218;2023-07-16T12:49:33;8.02;;;6.57;;
78989;SDS011;68390;52.130;21.218;2023-07-16T12:51:59;7.28;;;6.57;;
78989;SDS011;68390;52.130;21.218;2023-07-16T12:54:24;8.73;;;6.68;;
78989;SDS011;68390;52.130;21.218;2023-07-16T12:56:50;8.70;;;6.57;;
78989;SDS011;68390;52.130;21.218;2023-07-16T12:59:15;8.43;;;6.78;;
78989;SDS011;68390;52.130;21.218;2023-07-16T13:01:40;7.97;;;6.72;;
78989;SDS011;68390;52.130;21.218;2023-07-16T13:04:06;9.02;;;6.40;;
78989;SDS011;68390;52.130;21.218;2023-07-16T13:06:31;7.68;;;6.00;;
78989;SDS011;68390;52.130;21.218;2023-07-16T13:08:59;8.50;;;6.15;;
78989;SDS011;68390;52.130;21.218;2023-07-16T13:11:24;8.82;;;6.05;;
78989;SDS011;68390;52.130;21.218;2023-07-16T13:13:50;6.72;;;5.75;;
78989;SDS011;68390;52.130;21.218;2023-07-16T13:16:15;8.55;;;6.13;;
78989;SDS011;68390;52.130;21.218;2023-07-16T13:18:40;11.73;;;6.22;;
78989;SDS011;68390;52.130;21.218;2023-07-16T13:21:06;7.72;;;5.72;;
78989;SDS011;68390;52.130;21.218;2023-07-16T13:23:31;7.88;;;5.65;;
78989;SDS011;68390;52.130;21.218;2023-07-16T13:25:57;8.98;;;5.85;;
78989;SDS011;68390;52.130;21.218;2023-07-16T13:28:22;6.78;;;5.25;;
78989;SDS011;68390;52.130;21.218;2023-07-16T13:30:49;7.70;;;5.40;;
78989;SDS011;68390;52.130;21.218;2023-07-16T13:33:15;9.38;;;5.70;;
78989;SDS011;68390;52.130;21.218;2023-07-16T13:35:40;6.00;;;5.00;;
78989;SDS011;68390;52.130;21.218;2023-07-16T13:38:06;6.82;;;5.25;;
78989;SDS011;68390;52.130;21.218;2023-07-16T13:40:31;7.85;;;5.18;;
78989;SDS011;68390;52.130;21.218;2023-07-16T13:42:57;7.53;;;5.10;;
78989;SDS011;68390;52.130;21.218;2023-07-16T13:45:23;5.53;;;4.93;;
78989;SDS011;68390;52.130;21.218;2023-07-16T13:47:49;5.60;;;4.93;;
78989;SDS011;68390;52.130;21.218;2023-07-16T13:50:17;5.47;;;4.80;;
78989;SDS011;68390;52.130;21.218;2023-07-16T13:52:43;5.80;;;5.20;;
78989;SDS011;68390;52.130;21.218;2023-07-16T13:55:09;8.85;;;5.22;;
78989;SDS011;68390;52.130;21.218;2023-07-16T13:57:35;5.75;;;5.00;;
78989;SDS011;68390;52.130;21.218;2023-07-16T14:00:00;6.40;;;5.07;;
78989;SDS011;68390;52.130;21.218;2023-07-16T14:02:26;6.45;;;4.53;;
78989;SDS011;68390;52.130;21.218;2023-07-16T14:04:51;5.38;;;4.68;;
78989;SDS011;68390;52.130;21.218;2023-07-16T14:07:16;6.55;;;5.05;;
78989;SDS011;68390;52.130;21.218;2023-07-16T14:09:42;6.05;;;4.72;;
78989;SDS011;68390;52.130;21.218;2023-07-16T14:12:07;5.00;;;4.45;;
78989;SDS011;68390;52.130;21.218;2023-07-16T14:14:33;6.22;;;4.57;;
78989;SDS011;68390;52.130;21.218;2023-07-16T14:16:58;7.43;;;4.47;;
78989;SDS011;68390;52.130;21.218;2023-07-16T14:19:23;6.65;;;4.25;;
78989;SDS011;68390;52.130;21.218;2023-07-16T14:21:49;8.27;;;4.50;;
78989;SDS011;68390;52.130;21.218;2023-07-16T14:24:14;9.45;;;4.50;;
78989;SDS011;68390;52.130;21.218;2023-07-16T14:26:39;7.18;;;4.43;;
78989;SDS011;68390;52.130;21.218;2023-07-16T14:29:05;6.10;;;4.15;;
78989;SDS011;68390;52.130;21.218;2023-07-16T14:31:31;5.50;;;4.30;;
78989;SDS011;68390;52.130;21.218;2023-07-16T14:33:56;4.90;;;4.13;;
78989;SDS011;68390;52.130;21.218;2023-07-16T14:36:22;5.03;;;3.83;;
78989;SDS011;68390;52.130;21.218;2023-07-16T14:38:48;7.05;;;4.00;;
78989;SDS011;68390;52.130;21.218;2023-07-16T14:41:15;5.15;;;4.07;;
78989;SDS011;68390;52.130;21.218;2023-07-16T14:43:40;4.70;;;4.18;;